Latest Weather Observations for Dunalley

IDT60801

Issued at 7:01 am EST Tuesday 3 May 2016 (issued every 30 minutes, with the page automatically refreshed every 10 minutes)

About weather observations | Map of weather stations | Latest weather observations for TAS | Other Formats
Station Details ID: 094254 Name: DUNALLEY (STROUD POINT) Lat: -42.90 Lon: 147.79 Height: 12.43 m
Data from the previous 72 hours. | See also: Recent months at Dunalley
Date/Time
EST
Temp
°C
App
Temp
°C
Dew
Point
Rel
Hum
%
Delta-T
°C
Wind Press
QNH
hPa
Press
MSL
hPa
Rain
since 9 am
mm
Dir
 
Spd
km/h
Gust
km/h
Spd
kts
Gust
kts
03/07:00am 13.1 9.1 10.5 84 1.4 NW 22 35 12 19 987.9 987.9 3.8
03/06:30am 13.7 7.2 11.6 87 1.1 WNW 37 56 20 30 988.2 988.2 1.6
03/06:26am 14.7 9.6 12.0 84 1.5 WNW 30 56 16 30 987.9 987.9 0.8
03/06:00am 15.1 10.5 11.1 77 2.2 NNW 26 41 14 22 986.7 986.7 0.4
03/05:30am 15.3 10.5 10.3 72 2.6 NNW 26 39 14 21 987.1 987.1 0.0
03/05:00am 15.6 11.9 10.2 70 2.9 NNW 20 32 11 17 987.7 987.7 0.0
03/04:30am 16.1 12.9 9.8 66 3.3 NW 17 26 9 14 988.2 988.2 0.0
03/04:00am 16.2 13.2 9.2 63 3.7 N 15 28 8 15 988.2 988.2 0.0
03/03:30am 16.5 12.7 9.0 61 3.9 N 19 32 10 17 988.2 988.2 0.0
03/03:00am 16.0 12.5 8.7 62 3.8 N 17 26 9 14 988.3 988.3 0.0
03/02:30am 16.3 13.2 8.8 61 3.8 N 15 26 8 14 989.0 989.0 0.0
03/02:00am 15.1 12.6 8.3 64 3.5 N 11 19 6 10 989.2 989.2 0.0
03/01:30am 15.7 11.5 8.2 61 3.8 N 20 32 11 17 989.5 989.5 0.0
03/01:00am 15.7 11.7 8.4 62 3.7 N 19 32 10 17 989.9 989.9 0.0
03/12:30am 15.6 12.4 8.4 62 3.6 N 15 33 8 18 990.5 990.5 0.0
03/12:00am 15.7 11.2 8.4 62 3.7 N 22 30 12 16 990.4 990.4 0.0
 
Date/Time
EST
Temp
°C
App
Temp
°C
Dew
Point
Rel
Hum
%
Delta-T
°C
Wind Press
QNH
hPa
Press
MSL
hPa
Rain
since 9 am
mm
Dir
 
Spd
km/h
Gust
km/h
Spd
kts
Gust
kts
02/11:30pm 15.9 10.1 7.9 59 4.0 N 28 41 15 22 990.8 990.8 0.0
02/11:00pm 16.2 10.6 7.2 55 4.5 N 26 44 14 24 991.7 991.7 0.0
02/10:30pm 15.9 9.8 6.6 54 4.5 N 28 46 15 25 992.0 992.0 0.0
02/10:00pm 15.8 9.7 6.8 55 4.5 N 28 46 15 25 992.0 992.0 0.0
02/09:57pm 15.7 9.7 7.0 56 4.3 N 28 46 15 25 992.0 992.0 0.0
02/09:30pm 15.3 11.3 6.8 57 4.2 N 17 30 9 16 992.9 992.9 0.0
02/09:00pm 14.6 11.3 8.1 65 3.3 NNE 15 28 8 15 993.7 993.7 0.0
02/08:30pm 14.4 9.2 9.0 70 2.7 NE 26 35 14 19 994.2 994.2 0.0
02/08:00pm 14.8 11.9 8.1 64 3.4 N 13 24 7 13 995.0 995.0 0.0
02/07:30pm 14.6 9.0 8.8 68 2.9 NNE 28 43 15 23 995.0 995.0 0.0
02/07:00pm 14.5 7.9 8.7 68 3.0 NNE 33 48 18 26 995.0 995.0 0.0
02/06:30pm 14.8 9.8 8.1 64 3.4 N 24 44 13 24 995.5 995.5 0.0
02/06:00pm 14.6 10.5 7.9 64 3.4 N 19 28 10 15 995.7 995.7 0.0
02/05:30pm 14.4 9.1 8.6 68 2.9 NE 26 39 14 21 996.0 996.0 0.0
02/05:00pm 15.0 10.1 8.3 64 3.4 NNE 24 33 13 18 996.1 996.1 0.0
02/04:30pm 15.6 9.8 7.9 60 3.9 N 28 37 15 20 996.7 996.7 0.0
02/04:00pm 16.1 11.3 7.3 56 4.4 N 22 37 12 20 996.8 996.8 0.0
02/03:30pm 17.3 13.6 6.2 48 5.4 N 15 26 8 14 996.9 996.9 0.0
02/03:00pm 18.0 12.5 3.9 39 6.7 NW 22 39 12 21 997.5 997.5 0.0
02/02:30pm 17.4 12.6 4.4 42 6.1 NW 19 30 10 16 998.0 998.0 0.0
02/02:00pm 17.6 12.6 4.6 42 6.2 NW 20 39 11 21 998.3 998.3 0.0
02/01:30pm 17.2 12.7 4.2 42 6.1 NW 17 28 9 15 998.8 998.8 0.0
02/01:17pm 16.9 9.6 4.6 44 5.8 WNW 32 52 17 28 999.1 999.1 0.0
02/01:00pm 16.5 9.7 4.9 46 5.5 NW 30 46 16 25 999.3 999.3 0.0
02/12:59pm 16.6 10.1 4.9 46 5.6 NW 28 46 15 25 999.3 999.3 0.0
02/12:30pm 16.1 10.7 4.5 46 5.4 NW 22 43 12 23 1000.0 1000.0 0.0
02/12:00pm 16.3 10.3 5.3 48 5.3 NW 26 43 14 23 1000.5 1000.5 0.0
02/11:49am 15.5 9.0 4.8 49 5.0 NW 28 59 15 32 1000.7 1000.7 0.0
02/11:30am 15.6 10.3 5.2 50 4.9 NW 22 41 12 22 1000.8 1000.8 0.0
02/11:00am 15.2 9.5 4.9 50 4.9 NW 24 39 13 21 1001.2 1001.2 0.0
02/10:30am 14.1 9.8 5.2 55 4.2 NW 17 28 9 15 1001.9 1001.9 0.0
02/10:00am 13.1 9.9 5.0 58 3.8 NNW 11 20 6 11 1002.2 1002.2 0.0
02/09:30am 12.3 8.6 4.5 59 3.5 NW 13 24 7 13 1002.4 1002.4 0.0
02/09:00am 11.9 7.0 3.9 58 3.6 NW 19 28 10 15 1002.6 1002.6 10.0
02/08:30am 11.4 9.0 4.2 61 3.2 NNW 6 15 3 8 1002.9 1002.9 10.0
02/08:00am 11.1 8.1 4.1 62 3.1 NNW 9 17 5 9 1002.8 1002.8 10.0
02/07:30am 10.5 4.9 3.5 62 3.1 NW 22 33 12 18 1002.6 1002.6 10.0
02/07:00am 10.5 5.5 3.8 63 3.0 NW 19 26 10 14 1002.5 1002.5 10.0
02/06:30am 10.0 6.2 3.7 65 2.8 NW 13 22 7 12 1002.6 1002.6 10.0
02/06:00am 10.0 4.8 3.5 64 2.8 NW 20 33 11 18 1002.8 1002.8 10.0
02/05:30am 9.6 4.4 3.4 65 2.7 NW 20 28 11 15 1002.6 1002.6 10.0
02/05:00am 9.9 5.7 3.6 65 2.8 NW 15 24 8 13 1002.4 1002.4 10.0
02/04:30am 9.8 4.5 3.1 63 2.9 NW 20 32 11 17 1002.2 1002.2 10.0
02/04:00am 9.9 3.1 3.0 62 3.0 WNW 28 39 15 21 1001.8 1001.8 10.0
02/03:30am 10.4 2.8 3.0 60 3.2 WNW 32 46 17 25 1001.9 1001.9 10.0
02/03:00am 9.7 3.3 3.2 64 2.8 WNW 26 37 14 20 1001.9 1001.9 10.0
02/02:30am 9.8 4.1 3.1 63 2.9 WNW 22 30 12 16 1001.7 1001.7 10.0
02/02:00am 10.1 3.4 3.6 64 2.9 W 28 39 15 21 1001.5 1001.5 10.0
02/01:30am 9.9 4.3 3.4 64 2.8 WNW 22 33 12 18 1001.5 1001.5 10.0
02/01:00am 9.8 4.0 4.2 68 2.5 W 24 33 13 18 1001.2 1001.2 10.0
02/12:30am 9.7 4.3 4.5 70 2.3 WNW 22 30 12 16 1001.0 1001.0 10.0
02/12:20am 10.5 1.5 4.4 66 2.7 WSW 41 52 22 28 1001.0 1001.0 10.0
02/12:00am 11.2 0.7 5.5 68 2.6 WSW 50 57 27 31 1000.2 1000.2 10.0
 
Date/Time
EST
Temp
°C
App
Temp
°C
Dew
Point
Rel
Hum
%
Delta-T
°C
Wind Press
QNH
hPa
Press
MSL
hPa
Rain
since 9 am
mm
Dir
 
Spd
km/h
Gust
km/h
Spd
kts
Gust
kts
01/11:30pm 11.3 0.8 5.8 69 2.6 WSW 50 59 27 32 1000.0 1000.0 10.0
01/11:00pm 11.1 -1.2 5.2 67 2.7 WSW 59 70 32 38 999.4 999.4 10.0
01/10:30pm 11.4 -0.7 5.9 69 2.6 WSW 59 76 32 41 999.2 999.2 10.0
01/10:00pm 11.6 -0.8 6.3 70 2.5 W 61 80 33 43 998.8 998.8 10.0
01/09:30pm 11.7 -1.5 6.4 70 2.5 WSW 65 78 35 42 997.4 997.4 10.0
01/09:00pm 11.5 -2.7 6.2 70 2.5 W 70 85 38 46 996.8 996.8 10.0
01/08:30pm 11.6 -1.8 6.9 73 2.2 W 67 80 36 43 995.9 995.9 9.8
01/08:00pm 11.8 -1.2 7.3 74 2.2 W 65 76 35 41 995.2 995.2 9.8
01/07:30pm 11.7 -0.3 8.2 79 1.7 W 61 72 33 39 994.0 994.0 9.8
01/07:00pm 11.7 -1.8 8.9 83 1.4 W 70 87 38 47 992.9 992.9 9.6
01/06:30pm 12.2 -1.0 9.4 83 1.4 W 69 91 37 49 991.3 991.3 9.0
01/06:28pm 11.9 -1.4 9.1 83 1.4 W 69 91 37 49 991.2 991.2 9.0
01/06:06pm 12.5 3.1 10.2 86 1.2 W 50 82 27 44 990.3 990.3 8.0
01/06:05pm 12.5 3.5 10.2 86 1.2 WNW 48 82 26 44 990.3 990.3 7.8
01/06:00pm 12.4 4.8 10.5 88 1.0 WNW 41 61 22 33 990.2 990.2 7.8
01/05:49pm 12.5 6.6 10.4 87 1.1 WNW 32 63 17 34 989.8 989.8 7.2
01/05:30pm 12.6 9.0 10.5 87 1.1 WNW 20 35 11 19 989.2 989.2 6.2
01/05:00pm 13.7 9.1 11.2 85 1.3 SW 26 32 14 17 988.4 988.4 5.0
01/04:30pm 14.9 13.3 10.1 73 2.5 SW 9 24 5 13 987.7 987.7 4.2
01/04:00pm 14.6 14.2 9.8 73 2.5 SW 2 6 1 3 987.4 987.4 4.2
01/03:30pm 15.1 14.8 8.8 66 3.2 CALM 0 0 0 0 987.3 987.3 4.2
01/03:00pm 14.8 13.8 9.0 68 3.0 SW 4 6 2 3 987.3 987.3 4.2
01/02:30pm 14.7 13.2 9.1 69 2.9 SW 7 9 4 5 987.6 987.6 4.2
01/02:00pm 15.1 14.0 9.9 71 2.7 SW 6 9 3 5 988.3 988.3 4.2
01/01:30pm 14.6 11.8 10.0 74 2.4 WSW 15 20 8 11 988.9 988.9 4.2
01/01:00pm 14.8 13.1 8.3 65 3.3 N 7 24 4 13 988.9 988.9 4.2
01/12:52pm 14.3 12.3 8.5 68 2.9 N 9 26 5 14 988.9 988.9 4.2
01/12:30pm 14.1 7.7 9.5 74 2.4 N 33 54 18 29 990.9 990.9 4.2
01/12:26pm 15.5 10.8 10.7 73 2.5 N 26 54 14 29 990.9 990.9 4.2
01/12:25pm 15.8 11.5 10.8 72 2.7 N 24 46 13 25 990.8 990.8 4.2
01/12:00pm 16.4 15.4 12.2 76 2.3 SW 9 20 5 11 991.1 991.1 4.2
01/11:30am 14.6 14.4 13.0 90 0.9 S 6 7 3 4 992.4 992.4 4.2
01/11:00am 13.9 12.9 12.3 90 0.9 S 9 13 5 7 993.1 993.1 4.2
01/10:30am 13.8 14.0 11.8 88 1.1 NW 2 6 1 3 993.7 993.7 4.0
01/10:00am 13.7 11.1 11.9 89 1.0 NW 17 26 9 14 995.2 995.2 3.6
01/09:30am 13.5 10.2 11.6 88 1.0 NW 20 30 11 16 995.8 995.8 3.2
01/09:00am 15.8 12.9 12.2 79 2.0 WNW 19 28 10 15 996.2 996.2 0.6
01/08:30am 16.6 11.8 11.7 73 2.7 NE 28 35 15 19 996.0 996.0 0.6
01/08:11am 17.3 12.2 13.0 76 2.4 NNE 32 52 17 28 996.9 996.9 0.4
01/08:00am 17.3 10.9 13.2 77 2.3 NNE 39 50 21 27 996.5 996.5 0.2
01/07:30am 16.6 11.2 12.9 79 2.1 NNE 33 43 18 23 996.6 996.6 0.2
01/07:00am 15.4 11.0 12.9 85 1.4 NE 28 30 15 16 997.5 997.5 0.2
01/06:30am 15.6 13.1 13.4 87 1.2 NE 19 26 10 14 998.4 998.4 0.2
01/06:00am 15.6 13.4 13.3 86 1.3 NNE 17 20 9 11 999.5 999.5 0.2
01/05:30am 15.3 11.8 13.5 89 1.0 NE 24 32 13 17 1000.2 1000.2 0.2
01/05:00am 15.3 13.5 13.3 88 1.1 NE 15 19 8 10 1000.8 1000.8 0.2
01/04:30am 15.3 12.7 13.2 87 1.2 NE 19 24 10 13 1001.5 1001.5 0.2
01/04:00am 15.1 13.7 13.3 89 1.0 NNE 13 20 7 11 1001.7 1001.7 0.2
01/03:30am 15.3 13.6 13.5 89 1.0 NNE 15 17 8 9 1002.5 1002.5 0.2
01/03:00am 15.8 13.1 13.6 87 1.2 NE 20 26 11 14 1002.5 1002.5 0.2
01/02:30am 16.1 12.5 14.3 89 1.0 NE 26 30 14 16 1003.2 1003.2 0.2
01/02:00am 16.3 13.9 14.3 88 1.1 NE 20 28 11 15 1004.2 1004.2 0.2
01/01:30am 17.1 13.7 13.6 80 2.0 NNE 24 30 13 16 1004.9 1004.9 0.0
01/01:00am 17.4 14.6 13.3 77 2.3 NNE 20 30 11 16 1005.5 1005.5 0.0
01/12:30am 17.9 14.5 13.6 76 2.4 NE 24 33 13 18 1005.7 1005.7 0.0
01/12:00am 18.4 15.6 13.1 71 3.0 NNE 20 32 11 17 1005.9 1005.9 0.0
 
Date/Time
EST
Temp
°C
App
Temp
°C
Dew
Point
Rel
Hum
%
Delta-T
°C
Wind Press
QNH
hPa
Press
MSL
hPa
Rain
since 9 am
mm
Dir
 
Spd
km/h
Gust
km/h
Spd
kts
Gust
kts
30/11:30pm 18.8 15.5 12.8 68 3.4 NNE 22 41 12 22 1006.4 1006.4 0.0
30/11:00pm 17.5 14.6 13.0 75 2.5 NE 20 24 11 13 1006.8 1006.8 0.0
30/10:30pm 17.0 14.2 12.5 75 2.5 NE 19 24 10 13 1007.2 1007.2 0.0
30/10:00pm 17.7 14.8 12.4 71 2.9 NNE 19 30 10 16 1007.5 1007.5 0.0
30/09:30pm 17.6 13.8 12.5 72 2.8 NNE 24 33 13 18 1007.6 1007.6 0.0
30/09:00pm 17.0 13.5 12.3 74 2.6 NNE 22 32 12 17 1007.6 1007.6 0.0
30/08:30pm 17.4 13.1 12.1 71 2.9 NNE 26 33 14 18 1007.4 1007.4 0.0
30/08:00pm 17.7 13.0 11.9 69 3.2 N 28 35 15 19 1007.5 1007.5 0.0
30/07:30pm 17.9 14.4 12.1 69 3.2 N 22 35 12 19 1007.8 1007.8 0.0
30/07:00pm 17.8 14.8 11.8 68 3.3 N 19 26 10 14 1007.5 1007.5 0.0
30/06:30pm 18.2 14.3 12.0 67 3.4 NNE 24 35 13 19 1007.4 1007.4 0.0
30/06:00pm 18.5 14.5 11.8 65 3.7 NNE 24 48 13 26 1007.4 1007.4 0.0
30/05:54pm 18.9 14.1 11.7 63 4.0 NE 28 48 15 26 1007.3 1007.3 0.0
30/05:30pm 19.1 14.5 10.9 59 4.5 NNE 26 37 14 20 1007.1 1007.1 0.0
30/05:00pm 19.3 15.9 11.3 60 4.4 NE 20 30 11 16 1007.0 1007.0 0.0
30/04:30pm 19.7 17.0 11.7 60 4.4 NNE 17 20 9 11 1007.2 1007.2 0.0
30/04:00pm 20.9 19.3 11.5 55 5.2 N 11 17 6 9 1007.3 1007.3 0.0
30/03:30pm 20.7 18.8 11.9 57 4.9 N 13 20 7 11 1007.4 1007.4 0.0
30/03:00pm 21.3 17.9 11.3 53 5.5 N 20 32 11 17 1007.4 1007.4 0.0
30/02:30pm 21.9 17.8 11.3 51 5.9 NNE 24 41 13 22 1007.5 1007.5 0.0
30/02:00pm 22.0 17.0 11.1 50 6.0 NNE 28 43 15 23 1007.6 1007.6 0.0
30/01:30pm 21.6 17.0 11.0 51 5.8 N 26 39 14 21 1007.8 1007.8 0.0
30/01:00pm 21.5 18.5 10.6 50 6.0 N 17 28 9 15 1008.2 1008.2 0.0
30/12:30pm 21.4 19.0 11.4 53 5.5 N 15 26 8 14 1008.7 1008.7 0.0
30/12:00pm 21.7 18.5 9.9 47 6.4 N 17 28 9 15 1009.4 1009.4 0.0
30/11:30am 21.1 17.8 9.7 48 6.1 N 17 26 9 14 1009.9 1009.9 0.0
30/11:00am 20.7 19.2 10.5 52 5.6 NNE 9 19 5 10 1010.5 1010.5 0.0
30/10:30am 19.3 17.1 10.8 58 4.6 N 13 19 7 10 1010.8 1010.8 0.0
30/10:00am 18.3 16.5 10.9 62 4.0 N 11 13 6 7 1011.3 1011.3 0.0
30/09:30am 17.6 16.3 9.8 60 4.1 N 7 13 4 7 1011.7 1011.7 0.0
30/09:00am 16.8 14.5 10.4 66 3.4 N 13 22 7 12 1012.0 1012.0 1.0
30/08:30am 16.0 14.0 10.1 68 3.1 NNW 11 17 6 9 1011.9 1011.9 1.0
30/08:00am 14.9 13.9 10.3 74 2.4 NNW 6 11 3 6 1011.6 1011.6 1.0
30/07:30am 14.1 13.0 10.5 79 1.9 NNW 7 13 4 7 1011.6 1011.6 1.0

Other Formats:

Comma delimited format used in spreadsheet applications
http://www.bom.gov.au/fwo/IDT60801/IDT60801.94951.axf

JavaScript Object Notation format (JSON) in row-major order
http://www.bom.gov.au/fwo/IDT60801/IDT60801.94951.json